Date,TemperatureHighF,TemperatureAvgF,TemperatureLowF,DewpointHighF,DewpointAvgF,DewpointLowF,HumidityHigh,HumidityAvg,HumidityLow,PressureMaxIn,PressureMinIn,WindSpeedMaxMPH,WindSpeedAvgMPH,GustSpeedMaxMPH,PrecipitationSumIn
2013-1-1,31.1,27.5,19.5,30.0,25.3,17.0,97,91,83,30.24,30.10,3,0,5,0.00
2013-1-2,26.2,17.5,9.4,17.0,10.7,7.0,91,76,49,30.34,30.22,5,0,5,0.00
2013-1-3,34.2,23.6,15.7,24.0,16.3,7.0,83,74,63,30.40,30.29,9,3,12,0.00
2013-1-4,32.2,27.4,22.6,23.0,20.2,18.0,88,75,58,30.43,30.38,12,4,19,0.00
2013-1-5,39.1,30.2,21.8,28.0,24.1,20.0,93,79,56,30.40,30.20,7,3,11,0.04
2013-1-6,35.4,30.5,23.7,31.0,25.6,20.0,88,82,75,30.43,30.09,15,4,22,0.04
2013-1-7,38.8,27.6,19.3,26.0,22.4,18.0,95,82,57,30.52,30.30,4,1,9,0.02
2013-1-8,47.5,36.3,27.4,32.0,27.1,23.0,85,71,48,30.34,30.25,5,2,12,0.06
2013-1-9,52.3,44.6,39.0,42.0,36.3,31.0,95,74,47,30.54,30.24,8,3,17,0.14
2013-1-10,46.3,39.4,36.7,44.0,34.7,29.0,96,84,71,30.54,30.07,6,3,10,0.10
2013-1-11,58.6,53.8,46.6,53.0,49.7,44.0,97,86,72,30.07,29.89,9,3,15,0.58
2013-1-12,63.7,57.4,53.1,62.0,54.1,48.0,98,89,76,30.02,29.71,11,3,14,1.67
2013-1-13,63.6,38.1,23.3,62.0,37.0,21.0,97,95,88,30.25,29.64,10,2,16,1.52
2013-1-14,23.2,21.0,16.8,20.0,17.6,14.0,91,86,80,30.52,30.26,9,1,11,0.00
2013-1-15,30.6,24.7,18.4,25.0,20.8,16.0,92,85,72,30.46,30.16,6,2,10,0.00
2013-1-16,34.3,29.9,27.3,26.0,22.7,18.0,90,76,51,30.16,30.05,7,2,12,0.00
2013-1-17,40.6,31.9,23.2,32.0,24.3,17.0,82,74,57,30.48,30.15,5,1,13,0.00
2013-1-18,40.9,29.9,17.4,25.0,18.7,15.0,90,66,39,30.58,30.25,11,2,18,0.00
2013-1-19,53.9,44.5,38.2,34.0,27.0,21.0,60,51,43,30.25,29.94,13,7,24,0.00
2013-1-20,31.1,26.5,22.4,15.0,9.3,-99.9,72,52,39,30.31,0.00,7,-18,12,0.00
2013-1-21,22.2,16.7,9.4,16.0,5.3,-3.0,82,62,43,30.36,30.21,16,4,26,0.00
2013-1-22,14.3,8.3,3.0,-1.0,-4.6,-99.9,74,59,45,30.50,30.36,11,-15,13,0.00
2013-1-23,24.0,16.0,7.7,15.0,4.9,-2.0,78,62,51,30.46,30.20,7,1,11,0.00
2013-1-24,23.0,18.7,12.2,14.0,4.7,-3.0,82,57,35,30.68,30.25,4,2,14,0.00
2013-1-25,27.3,22.4,17.7,19.0,13.0,2.0,86,68,46,30.45,30.13,6,2,11,0.00
2013-1-26,31.7,24.2,16.4,19.0,16.7,14.0,88,74,55,30.49,30.20,4,1,8,0.00
2013-1-27,38.9,28.7,20.3,38.0,23.2,15.0,96,80,61,30.47,30.14,4,2,7,0.27
2013-1-28,55.4,49.3,39.5,55.0,48.0,39.0,98,95,89,30.17,30.04,10,4,17,0.49
2013-1-29,64.6,58.3,53.7,59.0,55.3,52.0,98,90,82,30.04,29.46,15,4,19,0.00
2013-1-30,66.2,46.3,26.5,60.0,43.5,21.0,97,90,73,29.68,29.29,18,5,28,1.39
2013-1-31,28.3,22.7,10.7,22.0,15.9,4.0,93,75,57,30.20,29.70,19,7,28,0.00
2013-2-1,16.6,9.7,3.2,8.0,2.4,-2.0,85,73,60,30.52,30.21,9,3,19,0.00
2013-2-2,29.7,22.4,13.1,24.0,18.3,7.0,91,84,70,30.39,30.09,8,2,14,0.00
2013-2-3,24.9,18.7,13.3,21.0,14.3,9.0,90,83,72,30.20,30.04,11,2,20,0.00
2013-2-4,38.8,28.6,17.8,32.0,23.1,14.0,92,80,55,30.19,29.86,8,2,16,0.08
2013-2-5,39.3,31.5,23.3,33.0,26.9,22.0,94,83,68,30.09,29.90,8,2,14,0.00
2013-2-6,35.4,30.6,28.1,31.0,25.9,24.0,88,83,73,30.32,30.10,4,1,9,0.00
2013-2-7,60.1,42.9,29.7,46.0,32.9,26.0,95,71,39,30.24,29.84,5,2,9,0.15
2013-2-8,46.7,33.4,27.6,45.0,30.1,25.0,95,87,82,30.40,29.86,15,2,19,0.02
2013-2-9,40.8,31.5,22.9,26.0,22.5,20.0,90,71,50,30.47,30.22,5,1,8,0.00
2013-2-10,50.3,43.0,34.7,48.0,34.5,20.0,95,73,55,30.22,29.78,7,3,16,0.10
2013-2-11,51.4,42.4,34.9,49.0,31.8,26.0,94,67,55,30.10,29.77,19,7,29,0.00
2013-2-12,46.6,35.8,25.7,28.0,25.5,22.0,92,69,40,30.20,29.98,9,2,13,0.00
2013-2-13,44.2,33.6,28.0,30.0,25.7,23.0,91,75,45,29.97,29.85,8,1,12,0.00
2013-2-14,50.1,40.1,33.2,36.0,32.7,28.0,92,77,54,30.07,29.86,13,4,24,0.00
2013-2-15,38.1,31.2,23.6,29.0,24.5,16.0,84,76,50,30.23,30.03,8,2,13,0.00
2013-2-16,26.1,22.2,18.4,16.0,12.9,9.0,83,68,49,30.21,30.16,11,2,16,0.00
2013-2-17,35.4,23.1,9.8,17.0,8.0,0.0,87,57,24,30.32,30.20,6,1,8,0.00
2013-2-18,59.3,42.1,26.8,42.0,28.0,11.0,91,59,36,30.22,29.66,13,4,28,0.37
2013-2-19,45.2,27.8,21.0,43.0,20.9,11.0,93,75,63,30.22,29.66,18,7,28,0.14
2013-2-20,26.6,20.5,14.3,15.0,10.5,6.0,81,66,49,30.40,30.22,15,3,20,0.00
2013-2-21,30.1,23.1,13.6,27.0,18.4,11.0,93,82,67,30.41,30.07,9,3,12,0.00
2013-2-22,35.9,33.0,28.6,34.0,30.5,27.0,97,91,82,30.05,29.90,9,3,15,0.20
2013-2-23,39.2,30.6,23.4,27.0,22.1,19.0,85,71,51,30.06,29.98,6,2,12,0.06
2013-2-24,42.3,30.7,20.3,26.0,23.0,19.0,94,75,52,30.20,30.04,4,1,8,0.01
2013-2-25,43.9,35.3,26.9,28.0,24.9,22.0,82,67,51,30.20,29.91,7,3,11,0.00
2013-2-26,43.0,38.3,32.9,42.0,34.9,25.0,97,88,61,29.89,29.41,10,3,15,0.95
2013-2-27,39.3,33.7,31.2,37.0,31.7,28.0,96,92,87,29.78,29.54,16,6,24,0.04
2013-2-28,35.9,32.6,30.7,32.0,30.4,28.0,95,91,86,30.05,29.76,8,3,17,0.02
2013-3-1,32.8,30.9,29.7,30.0,28.8,28.0,96,92,87,30.12,30.02,5,1,9,0.02
2013-3-2,29.4,27.4,25.3,27.0,22.8,20.0,92,83,72,30.17,30.10,4,1,14,0.01
2013-3-3,34.9,27.5,22.5,24.0,19.2,17.0,91,72,49,30.19,30.12,7,2,11,0.01
2013-3-4,38.0,31.5,22.9,26.0,20.6,17.0,79,65,48,30.19,30.01,7,2,9,0.00
2013-3-5,36.6,33.6,27.5,35.0,29.9,26.0,96,87,67,30.00,29.69,10,3,14,0.16
2013-3-6,30.6,28.2,26.2,30.0,27.3,25.0,96,96,96,30.35,29.80,5,1,9,0.00
2013-3-7,34.5,29.9,27.1,32.0,26.2,-99.9,96,90,82,30.46,30.34,4,-14,5,0.11
2013-3-8,42.8,34.0,24.7,28.0,25.7,23.0,94,73,51,30.54,30.41,5,1,8,0.06
2013-3-9,56.3,44.5,31.2,33.0,29.5,25.0,81,58,39,30.40,30.02,6,2,11,0.00
2013-3-10,67.1,58.8,52.4,41.0,35.8,32.0,52,43,30,30.02,29.77,14,3,17,0.02
2013-3-11,59.7,46.4,33.4,50.0,41.0,30.0,95,82,51,29.92,29.63,10,3,19,0.20
2013-3-12,45.4,36.0,31.2,31.0,27.0,23.0,93,71,45,30.11,29.92,10,3,14,0.00
2013-3-13,31.7,27.8,23.9,29.0,21.7,18.0,92,78,68,30.41,30.09,6,2,13,0.00
2013-3-14,44.8,30.9,18.6,30.0,21.0,15.0,93,70,32,30.43,30.25,7,1,8,0.01
2013-3-15,51.9,40.3,27.4,40.0,33.3,26.0,95,78,58,30.23,29.78,3,1,6,0.00
2013-3-16,55.9,46.3,35.8,50.0,40.3,31.0,87,80,70,30.07,29.65,5,1,12,0.03
2013-3-17,36.2,33.8,31.3,31.0,28.9,27.0,93,82,76,30.17,30.00,5,2,8,0.05
2013-3-18,43.4,36.9,32.3,42.0,35.5,31.0,97,94,89,29.99,29.66,6,2,16,0.90
2013-3-19,42.6,34.1,25.0,35.0,20.1,15.0,91,59,33,30.19,29.90,11,4,21,0.00
2013-3-20,34.0,28.8,24.1,20.0,14.6,8.0,74,56,42,30.18,30.07,8,2,17,0.00
2013-3-21,35.0,24.2,17.3,15.0,11.9,8.0,79,61,38,30.13,30.04,5,1,7,0.00
2013-3-22,47.2,32.7,21.7,17.0,12.8,11.0,70,47,24,30.14,30.04,6,1,8,0.00
2013-3-23,49.0,43.3,36.8,26.0,23.0,21.0,58,45,35,30.35,30.18,4,1,8,0.02
2013-3-24,37.6,33.4,28.3,32.0,28.2,23.0,95,82,58,30.19,29.73,12,3,13,0.00
2013-3-25,34.5,31.0,28.0,31.0,28.3,26.0,94,89,78,30.31,29.79,6,1,14,0.03
2013-3-26,41.6,34.4,29.7,30.0,26.7,22.0,92,75,50,30.57,30.31,9,1,11,0.37
2013-3-27,44.7,34.4,24.3,30.0,24.6,20.0,95,70,45,30.64,30.57,7,1,10,0.00
2013-3-28,51.1,36.4,22.8,30.0,24.9,21.0,92,67,39,30.68,30.59,6,1,9,0.00
2013-3-29,56.9,41.1,27.1,34.0,28.7,24.0,91,66,35,30.62,30.49,5,0,6,0.00
2013-3-30,60.6,46.2,29.4,37.0,32.8,27.0,93,64,35,30.52,30.20,4,1,6,0.00
2013-3-31,62.5,50.0,43.6,45.0,41.0,35.0,91,73,42,30.20,30.03,8,1,13,0.07
2013-4-1,48.4,41.2,34.4,42.0,24.4,17.0,79,53,33,30.43,30.10,10,2,17,0.00
2013-4-2,46.8,35.8,26.6,22.0,18.1,15.0,74,51,30,30.58,30.43,7,1,10,0.00
2013-4-3,48.5,36.3,22.9,21.0,17.5,14.0,79,49,29,30.72,30.56,11,1,11,0.00
2013-4-4,59.7,43.9,33.1,26.0,21.2,16.0,60,43,20,30.62,30.27,6,1,6,0.00
2013-4-5,60.2,45.6,30.4,33.0,27.2,24.0,81,52,30,30.42,30.26,5,1,10,0.00
2013-4-6,70.5,53.9,38.2,39.0,31.7,24.0,62,44,30,30.42,30.08,7,2,19,0.01
2013-4-7,73.7,66.2,58.3,47.0,42.1,37.0,58,43,31,30.18,30.05,10,3,17,0.00
2013-4-8,72.7,63.2,55.6,57.0,53.7,48.0,88,72,56,30.20,30.07,11,3,21,0.00
2013-4-9,80.9,69.3,57.3,60.0,56.0,53.0,84,65,41,30.24,30.11,12,3,21,0.00
2013-4-10,82.6,71.6,61.1,66.0,61.9,58.0,90,72,55,30.15,29.96,9,3,20,0.00
2013-4-11,67.0,60.9,50.9,62.0,58.2,50.0,96,91,81,30.02,29.78,10,2,17,1.06
2013-4-12,49.9,42.1,37.7,48.0,34.2,30.0,94,74,60,30.20,29.83,12,4,16,0.05
2013-4-13,52.2,45.4,40.3,37.0,33.5,31.0,79,65,49,30.29,30.20,19,3,19,0.00
2013-4-14,72.1,56.0,39.7,47.0,40.8,34.0,84,60,35,30.30,30.07,6,2,11,0.00
2013-4-15,71.9,62.5,53.8,56.0,51.1,44.0,79,67,54,30.20,30.09,5,3,12,0.00
2013-4-16,62.2,55.5,50.2,56.0,51.7,47.0,96,87,75,30.42,30.12,10,2,15,1.21
2013-4-17,75.4,60.1,49.0,68.0,56.4,48.0,96,88,75,30.48,30.14,8,2,18,0.58
2013-4-18,78.3,67.1,61.1,66.0,61.7,60.0,97,84,59,30.13,29.79,12,3,20,0.84
2013-4-19,61.0,40.9,37.0,60.0,35.0,30.0,97,80,68,30.26,29.78,14,4,20,0.96
2013-4-20,47.5,39.8,31.7,33.0,27.6,23.0,89,64,41,30.69,30.26,9,3,12,0.00
2013-4-21,56.6,43.2,30.0,33.0,27.6,23.0,84,56,37,30.82,30.64,6,1,10,0.00
2013-4-22,69.3,53.8,34.7,39.0,32.9,27.0,75,48,27,30.64,30.36,4,1,9,0.00
2013-4-23,68.1,59.0,53.6,57.0,48.3,39.0,93,69,52,30.36,30.03,8,2,13,0.35
2013-4-24,57.3,43.6,35.9,56.0,38.6,31.0,96,84,56,30.49,30.04,10,3,19,1.21
2013-4-25,55.1,44.2,32.3,40.0,32.2,27.0,94,67,36,30.66,30.49,11,2,21,0.00
2013-4-26,64.3,50.2,34.4,39.0,34.9,31.0,89,59,36,30.72,30.58,6,1,9,0.00
2013-4-27,64.6,53.3,41.9,52.0,43.3,36.0,92,71,40,30.60,30.27,5,1,9,0.04
2013-4-28,62.0,56.5,53.8,59.0,54.7,52.0,97,94,85,30.25,30.08,4,1,10,0.57
2013-4-29,71.1,60.4,55.2,57.0,54.3,51.0,97,82,52,30.25,30.14,3,1,8,0.04
2013-4-30,81.0,66.4,51.7,61.0,55.0,49.0,92,69,48,30.27,30.16,5,1,11,0.00
2013-5-1,85.0,71.6,56.9,59.0,54.9,52.0,84,59,35,30.37,30.26,6,1,8,0.00
2013-5-2,78.5,69.9,61.6,58.0,55.2,53.0,81,61,42,30.40,30.27,7,1,12,0.00
2013-5-3,75.9,67.1,60.9,63.0,57.2,48.0,90,71,51,30.29,30.12,5,1,8,0.08
2013-5-4,69.8,62.2,54.6,53.0,47.3,41.0,93,60,44,30.25,30.15,6,1,9,0.02
2013-5-5,59.1,55.1,51.9,54.0,52.2,49.0,96,90,76,30.26,30.17,4,1,8,0.35
2013-5-6,68.0,59.5,52.5,59.0,53.9,49.0,96,82,64,30.22,30.14,10,1,12,0.21
2013-5-7,73.3,64.8,54.6,59.0,55.0,53.0,95,73,53,30.24,30.17,6,1,9,0.01
2013-5-8,78.3,67.0,54.6,61.0,56.8,53.0,98,73,43,30.25,30.18,4,0,11,0.00
2013-5-9,82.6,65.1,55.4,61.0,56.7,52.0,96,77,35,30.24,30.12,14,1,15,0.85
2013-5-10,70.5,61.6,50.3,63.0,59.3,47.0,98,92,74,30.15,30.04,9,1,13,0.12
2013-5-11,64.1,52.1,45.2,53.0,44.4,32.0,94,77,38,30.29,30.13,20,2,20,0.00
2013-5-12,56.2,47.5,36.8,40.0,31.9,27.0,92,58,33,30.39,30.29,11,2,17,0.00
2013-5-13,64.1,50.5,34.4,40.0,33.0,27.0,96,58,25,30.47,30.37,9,1,14,0.00
2013-5-14,86.6,67.6,48.3,61.0,48.8,37.0,75,52,37,30.38,30.05,13,2,15,0.00
2013-5-15,88.1,78.2,66.9,63.0,59.6,56.0,74,54,37,30.10,30.01,9,2,13,0.00
2013-5-16,82.5,72.7,64.2,67.0,63.5,58.0,95,75,45,30.18,30.05,4,1,11,0.16
2013-5-17,85.0,69.9,62.6,67.0,63.8,61.0,96,83,46,30.26,30.19,5,0,9,0.50
2013-5-18,80.4,69.4,63.2,68.0,64.7,62.0,98,86,58,30.29,30.18,3,0,6,0.13
2013-5-19,86.3,74.4,61.9,69.0,65.9,61.0,98,77,51,30.21,30.06,4,0,8,0.00
2013-5-20,86.3,77.9,69.8,71.0,68.9,67.0,96,75,55,30.16,30.03,6,1,12,0.00
2013-5-21,85.2,73.9,62.2,68.0,64.3,61.0,96,74,47,30.12,29.97,10,2,27,0.17
2013-5-22,77.2,69.1,62.7,66.0,63.2,61.0,94,82,60,30.01,29.93,7,1,14,0.24
2013-5-23,65.1,59.0,49.8,60.0,54.2,45.0,96,84,70,30.40,30.02,14,3,18,0.03
2013-5-24,66.7,53.9,45.1,46.0,41.3,36.0,89,66,34,30.63,30.40,9,2,12,0.00
2013-5-25,66.4,54.7,42.0,50.0,43.8,39.0,95,70,38,30.64,30.47,2,0,9,0.01
2013-5-26,70.1,60.1,52.2,56.0,49.2,42.0,93,69,49,30.55,30.41,4,0,6,0.05
2013-5-27,82.6,67.3,55.7,67.0,59.7,54.0,95,78,55,30.43,30.07,7,1,17,0.39
2013-5-28,83.1,73.5,62.8,69.0,65.2,61.0,94,76,57,30.20,30.10,11,1,15,0.00
2013-5-29,88.2,78.1,69.3,65.0,62.5,60.0,77,60,40,30.25,30.16,7,1,13,0.00
2013-5-30,88.4,78.2,68.4,74.0,66.5,64.0,85,68,50,30.28,30.16,7,2,18,0.05
2013-5-31,78.3,72.0,64.9,71.0,67.4,63.0,96,86,75,30.22,30.08,5,1,9,1.19
2013-6-1,77.6,70.4,64.1,70.0,65.5,63.0,97,85,71,30.12,29.99,6,1,12,1.02
2013-6-2,71.8,65.9,59.3,64.0,59.7,54.0,93,81,67,30.22,30.03,9,2,13,0.00
2013-6-3,69.1,58.2,45.4,53.0,47.8,43.0,91,70,48,30.33,30.22,6,1,10,0.00
2013-6-4,78.1,63.3,48.3,54.0,47.2,44.0,91,60,32,30.39,30.29,3,0,8,0.00
2013-6-5,82.9,69.0,55.2,61.0,54.4,48.0,84,62,40,30.31,30.09,4,0,6,0.00
2013-6-6,79.7,68.0,61.4,63.0,57.4,52.0,87,69,54,30.09,30.00,4,0,6,0.00
2013-6-7,74.9,67.2,60.1,62.0,58.3,56.0,94,74,57,30.11,30.04,5,1,10,0.00
2013-6-8,81.6,68.9,57.1,63.0,58.6,54.0,90,71,47,30.24,30.10,3,0,6,0.00
2013-6-9,83.5,72.1,63.0,68.0,62.6,58.0,94,74,46,30.25,30.05,5,0,8,0.02
2013-6-10,78.5,70.6,64.5,67.0,64.2,62.0,97,81,58,30.09,30.00,5,1,10,0.16
2013-6-11,87.6,74.7,60.8,68.0,64.0,60.0,97,72,46,30.20,30.09,3,1,7,0.00
2013-6-12,93.1,81.4,68.8,76.0,71.9,67.0,94,74,54,30.14,29.87,3,1,11,0.00
2013-6-13,84.1,74.0,64.7,72.0,62.3,53.0,94,68,42,30.20,29.81,12,4,18,0.44
2013-6-14,82.4,69.3,57.1,62.0,56.7,53.0,91,67,41,30.30,30.16,6,1,10,0.00
2013-6-15,86.2,73.4,58.6,64.0,60.6,57.0,94,67,43,30.33,30.16,4,1,10,0.00
2013-6-16,80.8,72.7,66.0,70.0,66.0,62.0,94,80,66,30.22,30.14,6,1,25,0.05
2013-6-17,90.4,76.7,65.7,73.0,67.2,62.0,97,75,41,30.19,30.08,4,0,6,0.00
2013-6-18,85.3,75.3,64.7,69.0,62.9,59.0,92,67,43,30.20,30.09,7,1,12,0.00
2013-6-19,84.6,72.4,59.4,62.0,59.4,57.0,91,66,43,30.32,30.20,4,0,9,0.00
2013-6-20,91.4,75.0,60.0,66.0,60.2,57.0,93,63,36,30.41,30.33,4,0,7,0.00
2013-6-21,91.8,78.0,63.6,67.0,62.6,58.0,84,61,38,30.41,30.26,4,0,7,0.00
2013-6-22,91.6,76.9,69.2,75.0,68.4,65.0,93,76,43,30.35,30.25,5,1,9,0.02
2013-6-23,89.5,74.7,65.5,72.0,68.3,62.0,97,82,53,30.33,30.26,5,1,9,0.02
2013-6-24,89.1,78.1,68.5,73.0,69.4,67.0,96,77,48,30.35,30.22,3,1,6,0.04
2013-6-25,92.1,79.7,68.4,75.0,71.0,65.0,93,76,51,30.24,30.08,6,1,17,0.18
2013-6-26,86.5,73.2,65.8,75.0,68.5,65.0,97,86,65,30.13,29.96,4,0,11,0.43
2013-6-27,89.0,77.9,67.1,72.0,69.0,66.0,97,76,52,30.01,29.91,7,2,14,0.00
2013-6-28,86.8,75.7,64.6,71.0,64.7,60.0,96,71,42,29.92,29.81,16,2,18,0.36
2013-6-29,73.2,66.5,61.2,68.0,64.3,61.0,98,93,79,29.89,29.80,2,0,6,1.36
2013-6-30,73.1,67.5,62.7,68.0,64.3,62.0,97,90,74,30.09,29.89,6,1,11,0.26
2013-7-1,71.1,67.3,65.6,68.0,63.0,60.0,94,86,77,30.18,30.07,7,2,14,0.67
2013-7-2,76.8,66.9,61.5,69.0,64.0,60.0,97,90,74,30.24,30.16,5,1,10,1.30
2013-7-3,82.0,70.0,59.6,68.0,63.8,59.0,98,83,54,30.32,30.23,5,1,10,0.01
2013-7-4,79.3,69.4,61.1,69.0,65.4,60.0,98,88,67,30.36,30.29,2,0,4,0.00
2013-7-5,81.7,73.5,64.0,69.0,66.9,64.0,98,81,61,30.36,30.27,3,0,6,0.00
2013-7-6,74.4,70.6,66.7,69.0,67.7,65.0,97,91,74,30.33,30.25,2,0,6,0.11
2013-7-7,86.4,73.6,62.6,70.0,66.4,62.0,98,80,52,30.33,30.24,4,0,7,0.00
2013-7-8,88.1,77.2,67.6,75.0,70.2,66.0,96,80,59,30.33,30.23,6,0,9,0.00
2013-7-9,90.6,81.5,76.2,80.0,74.2,71.0,94,79,64,30.28,30.16,9,1,9,0.00
2013-7-10,88.0,78.5,69.7,77.0,72.5,67.0,94,82,65,30.18,30.05,9,1,11,0.09
2013-7-11,79.4,72.0,61.7,67.0,58.3,55.0,86,63,44,30.26,30.16,12,3,17,0.00
2013-7-12,82.1,70.4,57.3,63.0,58.2,56.0,95,68,44,30.34,30.27,8,1,11,0.00
2013-7-13,85.9,74.5,62.3,67.0,62.8,59.0,90,69,48,30.35,30.28,6,1,11,0.00
2013-7-14,92.0,80.2,68.2,74.0,69.2,65.0,90,71,50,30.40,30.34,3,0,6,0.00
2013-7-15,91.9,81.7,73.3,73.0,71.8,70.0,93,73,51,30.49,30.41,5,0,7,0.00
2013-7-16,94.7,82.1,69.9,75.0,71.7,69.0,95,73,50,30.54,30.47,4,0,8,0.00
2013-7-17,95.0,83.4,72.4,75.0,71.5,69.0,97,70,44,30.54,30.39,6,1,8,0.00
2013-7-18,96.9,84.4,71.1,76.0,72.1,69.0,97,70,42,30.42,30.22,4,0,7,0.00
2013-7-19,93.5,83.8,74.8,77.0,73.8,72.0,92,73,52,30.24,30.07,4,1,10,0.00
2013-7-20,85.0,75.5,68.4,75.0,70.3,67.0,96,85,64,30.13,30.05,5,0,10,0.14
2013-7-21,86.3,75.4,66.4,73.0,69.8,66.0,98,84,61,30.19,30.09,2,0,5,0.01
2013-7-22,85.0,74.6,68.6,72.0,69.5,68.0,97,85,62,30.10,29.99,5,0,9,0.09
2013-7-23,90.2,77.6,67.9,76.0,68.6,58.0,97,76,43,30.10,29.96,10,2,13,0.00
2013-7-24,76.3,66.7,57.6,58.0,55.1,53.0,86,68,47,30.25,30.09,7,2,14,0.00
2013-7-25,80.4,67.6,53.3,56.0,53.8,49.0,95,65,36,30.33,30.25,4,1,11,0.00
2013-7-26,81.8,70.2,56.0,63.0,58.7,54.0,96,70,47,30.32,30.17,5,1,8,0.00
2013-7-27,78.7,70.0,61.9,66.0,59.8,50.0,96,73,47,30.18,30.07,8,2,13,0.22
2013-7-28,74.6,63.6,48.8,55.0,50.8,48.0,96,66,43,30.28,30.17,5,1,12,0.00
2013-7-29,79.3,65.3,52.3,58.0,54.4,52.0,98,72,44,30.42,30.29,6,1,10,0.00
2013-7-30,75.9,66.7,55.5,67.0,61.0,54.0,97,82,62,30.44,30.33,2,0,5,0.02
2013-7-31,76.1,69.7,64.4,70.0,66.4,63.0,97,89,80,30.34,30.16,2,0,5,0.02
2013-8-1,83.3,72.8,62.8,69.0,61.7,55.0,97,72,38,30.23,30.17,7,1,15,0.01
2013-8-2,84.7,69.8,55.5,68.0,61.9,55.0,98,78,52,30.23,30.16,9,1,12,0.00
2013-8-3,82.6,73.1,67.0,70.0,65.1,56.0,97,78,49,30.30,30.16,5,1,9,0.63
2013-8-4,79.2,68.2,55.7,59.0,55.2,52.0,91,65,41,30.40,30.30,4,1,8,0.00
2013-8-5,83.3,68.8,55.6,63.0,58.5,55.0,97,73,45,30.35,30.16,6,0,7,0.00
2013-8-6,82.8,73.1,66.1,73.0,67.3,62.0,94,82,70,30.18,29.89,2,0,6,0.00
2013-8-7,85.7,76.8,69.8,74.0,72.0,69.0,97,86,65,29.92,29.84,4,0,7,0.00
2013-8-8,87.0,76.7,71.0,76.0,73.0,70.0,98,89,62,29.94,29.88,3,0,10,0.97
2013-8-9,84.1,74.9,69.5,71.0,68.0,64.0,97,80,52,30.03,29.91,5,1,8,0.02
2013-8-10,86.8,75.8,66.8,69.0,66.3,63.0,95,75,50,30.11,30.02,5,0,7,0.00
2013-8-11,85.8,74.7,64.9,70.0,65.3,60.0,98,75,44,30.10,30.04,5,1,9,0.00
2013-8-12,85.7,74.1,64.4,69.0,65.3,60.0,98,76,42,30.08,29.88,6,0,8,0.00
2013-8-13,76.4,70.0,60.4,68.0,59.5,48.0,93,71,47,30.10,29.86,10,3,14,0.00
2013-8-14,71.7,60.2,48.2,51.0,48.7,45.0,95,68,44,30.20,30.10,10,1,11,0.00
2013-8-15,74.7,60.9,48.0,55.0,51.2,47.0,98,74,47,30.20,30.11,3,0,6,0.00
2013-8-16,78.0,64.4,53.7,58.0,54.8,51.0,94,73,47,30.18,30.13,5,0,11,0.00
2013-8-17,82.8,69.4,57.5,63.0,57.4,54.0,91,68,45,30.21,30.12,3,0,10,0.00
2013-8-18,85.0,70.9,57.0,65.0,60.1,56.0,97,72,42,30.19,30.09,4,0,8,0.00
2013-8-19,86.8,71.8,57.9,66.0,61.3,57.0,98,73,43,30.14,30.05,4,0,6,0.00
2013-8-20,89.2,74.9,60.4,68.0,64.7,60.0,98,74,42,30.16,30.06,3,0,5,0.00
2013-8-21,89.9,77.2,65.2,74.0,67.9,64.0,98,76,45,30.14,30.03,7,1,9,0.00
2013-8-22,86.5,75.2,66.3,72.0,67.8,65.0,97,79,54,30.09,30.00,9,1,12,0.00
2013-8-23,85.7,75.2,67.4,69.0,65.7,62.0,92,74,49,30.14,30.06,8,1,8,0.00
2013-8-24,88.9,73.5,58.3,62.0,58.9,56.0,93,64,35,30.26,30.14,3,0,7,0.00
2013-8-25,90.0,74.3,59.1,64.0,60.5,57.0,96,67,35,30.31,30.20,4,0,7,0.00
2013-8-26,90.4,75.4,61.5,74.0,67.4,60.0,97,78,50,30.23,30.07,6,1,10,0.00
2013-8-27,92.8,79.3,68.8,75.0,71.8,68.0,98,80,51,30.09,29.95,6,1,8,0.00
2013-8-28,94.2,82.5,73.7,77.0,72.7,69.0,93,74,51,29.97,29.88,7,2,13,0.00
2013-8-29,91.2,79.0,70.8,73.0,69.8,67.0,97,76,46,30.03,29.96,4,1,7,0.00
2013-8-30,94.6,79.7,65.0,73.0,69.5,64.0,98,74,48,29.98,29.81,4,1,10,0.00
2013-8-31,95.9,79.4,70.0,76.0,70.4,67.0,96,76,49,29.84,29.72,9,1,16,0.80
2013-9-1,85.6,74.8,66.1,73.0,69.5,65.0,98,84,64,29.81,29.74,3,1,9,0.00
2013-9-2,84.3,74.5,68.9,71.0,66.6,59.0,97,79,47,29.92,29.78,5,1,11,0.00
2013-9-3,76.0,66.5,54.2,61.0,54.7,51.0,91,68,48,30.07,29.92,6,2,12,0.00
2013-9-4,83.3,67.0,52.0,62.0,56.7,51.0,98,74,39,30.16,30.06,4,1,9,0.00
2013-9-5,85.7,71.5,58.1,64.0,60.8,57.0,98,72,45,30.20,30.13,5,1,7,0.00
2013-9-6,85.6,70.4,56.8,63.0,56.8,51.0,81,64,42,30.23,30.08,3,0,5,0.00
2013-9-7,87.2,73.7,59.0,69.0,63.2,57.0,93,71,48,30.09,29.95,8,1,11,0.00
2013-9-8,89.5,78.0,67.1,73.0,68.4,63.0,97,75,42,29.97,29.91,4,0,6,0.01
2013-9-9,93.2,79.8,66.7,73.0,69.8,66.0,97,74,50,29.99,29.91,6,1,10,0.00
2013-9-10,96.6,81.4,72.6,76.0,72.0,68.0,96,75,41,30.10,29.98,4,1,8,0.09
2013-9-11,94.3,80.6,70.8,76.0,68.6,62.0,95,71,37,30.12,30.00,6,1,12,0.00
2013-9-12,82.6,74.2,66.3,71.0,66.6,51.0,95,79,42,30.01,29.87,6,1,14,0.20
2013-9-13,67.4,61.4,54.1,55.0,46.9,42.0,81,61,42,30.11,29.98,9,3,14,0.00
2013-9-14,73.6,57.0,43.0,46.0,42.5,37.0,93,63,26,30.22,30.11,3,0,6,0.00
2013-9-15,79.3,61.8,45.5,63.0,49.9,43.0,94,69,34,30.15,30.02,4,0,9,0.03
2013-9-16,68.7,62.0,55.4,58.0,55.1,50.0,93,79,62,30.29,30.08,9,1,12,0.02
2013-9-17,76.7,62.4,50.1,56.0,51.8,48.0,92,71,43,30.33,30.16,4,0,9,0.00
2013-9-18,83.1,69.4,56.2,66.0,60.1,53.0,90,74,54,30.16,30.02,4,0,6,0.00
2013-9-19,83.5,71.9,65.4,73.0,68.1,64.0,97,88,68,30.09,29.92,6,0,8,0.86
2013-9-20,80.2,72.3,67.0,71.0,68.6,66.0,96,88,70,29.95,29.80,6,1,9,0.27
2013-9-21,71.0,62.7,54.8,66.0,52.7,46.0,96,73,43,29.91,29.77,7,2,17,0.19
2013-9-22,69.4,55.5,43.6,52.0,47.2,43.0,98,77,45,30.03,29.92,7,1,7,0.00
2013-9-23,72.5,57.0,44.8,52.0,47.4,44.0,96,74,42,30.13,30.03,3,0,9,0.00
2013-9-24,78.3,61.6,46.3,60.0,52.6,45.0,94,74,50,30.09,29.91,5,0,8,0.00
2013-9-25,80.1,66.5,54.9,61.0,54.6,49.0,88,68,45,29.94,29.86,4,1,7,0.00
2013-9-26,81.3,62.3,46.1,57.0,52.6,45.0,98,75,40,30.08,29.94,4,0,7,0.00
2013-9-27,82.3,64.0,47.0,59.0,52.0,46.0,97,70,33,30.18,30.08,4,0,5,0.00
2013-9-28,83.3,66.3,50.5,60.0,55.7,49.0,97,72,42,30.17,30.03,4,0,9,0.00
2013-9-29,66.3,63.2,60.1,63.0,60.4,57.0,97,91,73,30.05,29.98,4,0,7,0.71
2013-9-30,72.8,65.1,60.2,65.0,62.0,59.0,98,90,73,30.02,29.94,4,0,6,0.02
2013-10-1,77.6,65.7,57.8,66.0,62.1,57.0,98,89,64,30.08,29.99,4,0,8,0.01
2013-10-2,77.7,68.1,60.6,70.0,65.7,60.0,98,92,74,30.11,30.03,3,0,4,0.00
2013-10-3,81.8,71.7,65.8,70.0,66.9,65.0,98,86,58,30.06,29.96,4,0,10,0.02
2013-10-4,81.9,71.7,64.7,73.0,67.9,64.0,98,88,69,30.06,29.99,4,0,6,0.03
2013-10-5,73.8,70.4,65.2,72.0,68.9,64.0,98,95,89,30.03,29.88,3,0,8,1.17
2013-10-6,65.7,59.4,44.6,65.0,57.1,41.0,98,92,66,29.89,29.75,6,1,16,1.70
2013-10-7,62.8,51.4,43.1,49.0,45.5,41.0,97,81,58,30.18,29.83,7,1,11,0.01
2013-10-8,71.9,54.9,41.9,57.0,46.9,41.0,98,79,45,30.28,30.18,3,0,5,0.01
2013-10-9,74.3,56.0,42.0,55.0,48.2,41.0,98,78,42,30.26,30.16,4,0,4,0.00
2013-10-10,74.5,56.9,44.7,56.0,48.9,44.0,98,79,44,30.21,30.09,4,0,6,0.00
2013-10-11,76.8,58.0,43.1,57.0,49.2,43.0,98,77,36,30.13,30.03,2,0,4,0.01
2013-10-12,77.9,61.1,46.7,62.0,54.6,46.0,98,82,48,30.13,30.04,3,0,7,0.00
2013-10-13,71.2,62.8,54.4,62.0,47.9,40.0,91,61,34,30.36,30.13,7,2,11,0.00
2013-10-14,70.6,55.3,43.5,51.0,43.5,-99.9,91,69,39,30.37,30.20,4,-12,9,0.00
2013-10-15,66.8,59.7,51.3,63.0,56.1,46.0,94,88,77,30.19,29.93,2,0,7,0.04
2013-10-16,64.8,57.3,44.0,63.0,49.8,41.0,95,77,56,30.00,29.89,5,1,9,0.00
2013-10-17,54.0,45.8,39.3,49.0,43.2,38.0,97,91,71,30.00,29.92,3,0,10,0.16
2013-10-18,65.3,51.3,39.2,50.0,43.5,39.0,98,78,49,30.03,29.94,10,1,10,0.00
2013-10-19,53.0,45.0,41.5,43.0,39.7,35.0,96,83,54,30.00,29.90,5,0,10,0.40
2013-10-20,63.7,49.9,38.4,45.0,40.1,36.0,92,72,45,30.03,29.95,8,1,9,0.00
2013-10-21,61.6,50.4,41.9,48.0,42.9,29.0,94,76,59,30.04,29.92,6,1,10,0.00
2013-10-22,51.4,40.5,28.2,39.0,31.9,27.0,96,74,43,30.08,29.85,4,0,10,0.01
2013-10-23,46.3,39.9,34.3,39.0,33.9,28.0,95,80,51,30.10,29.82,7,2,12,0.22
2013-10-24,40.1,38.1,35.0,36.0,32.6,28.0,91,81,69,30.34,30.09,4,1,8,0.04
2013-10-25,48.9,36.5,25.8,31.0,26.3,24.0,95,70,39,30.50,30.31,5,0,8,0.00
2013-10-26,56.2,43.1,32.3,41.0,32.0,26.0,84,66,54,30.30,29.96,7,1,20,0.01
2013-10-27,57.2,40.5,28.0,38.0,32.2,27.0,97,76,39,30.15,30.07,4,0,10,0.00
2013-10-28,61.1,42.5,28.4,41.0,32.9,27.0,97,74,36,30.34,30.12,3,0,5,0.00
2013-10-29,55.9,46.8,36.3,47.0,40.3,34.0,93,78,64,30.38,30.23,0,0,2,0.01
2013-10-30,63.2,56.7,48.8,62.0,55.9,47.0,97,97,92,30.23,29.98,3,0,7,0.08
2013-10-31,65.3,61.8,57.0,63.0,60.0,56.0,98,94,85,29.98,29.31,8,2,20,1.12
2013-11-1,58.8,51.3,45.7,54.0,45.5,40.0,96,81,59,29.79,29.42,9,3,19,0.03
2013-11-2,52.7,46.6,41.0,43.0,39.5,36.0,95,77,56,30.16,29.79,10,2,15,0.00
2013-11-3,53.2,43.0,30.5,40.0,35.4,30.0,97,77,49,30.37,30.16,6,0,8,0.00
2013-11-4,53.4,47.2,38.5,43.0,39.2,35.0,86,74,62,30.38,30.29,3,0,11,0.00
2013-11-5,58.3,52.2,45.9,47.0,44.7,41.0,92,76,64,30.40,30.17,2,0,6,0.01
2013-11-6,60.0,53.5,41.5,55.0,47.5,39.0,95,81,63,30.16,29.95,16,2,18,0.33
2013-11-7,48.1,40.9,33.4,39.0,30.4,25.0,90,69,41,30.34,30.13,8,2,15,0.00
2013-11-8,50.9,38.5,26.4,32.0,29.1,25.0,97,72,41,30.42,30.23,4,0,10,0.00
2013-11-9,61.4,50.7,40.6,42.0,35.7,27.0,69,57,47,30.22,30.03,13,3,18,0.00
2013-11-10,48.7,41.3,30.3,39.0,31.9,28.0,92,70,54,30.38,30.15,10,2,15,0.00
2013-11-11,50.9,40.3,28.0,41.0,33.6,27.0,96,78,56,30.38,30.14,11,3,16,0.06
2013-11-12,35.3,30.1,25.3,28.0,22.0,19.0,93,72,55,30.70,30.39,10,3,15,0.00
2013-11-13,39.4,28.6,17.5,21.0,18.2,14.0,94,68,37,30.70,30.42,8,1,13,0.00
2013-11-14,54.6,40.3,26.4,23.0,19.6,14.0,75,47,20,30.41,30.16,11,2,18,0.00
2013-11-15,53.3,44.1,36.7,38.0,27.5,21.0,87,53,40,30.16,30.08,6,1,12,0.00
2013-11-16,59.5,51.8,42.0,58.0,49.1,39.0,96,90,82,30.10,29.79,7,2,13,0.03
2013-11-17,67.2,59.3,49.7,63.0,54.9,41.0,97,86,62,29.82,29.43,16,4,26,1.32
2013-11-18,49.5,43.9,34.3,42.0,33.1,23.0,86,67,39,30.25,29.83,16,4,26,0.00
2013-11-19,41.6,34.1,28.4,30.0,27.5,25.0,88,77,62,30.40,30.26,8,1,10,0.00
2013-11-20,48.0,38.1,28.1,34.0,29.5,25.0,87,72,56,30.36,30.22,6,1,12,0.00
2013-11-21,53.0,47.3,42.9,48.0,42.6,34.0,96,84,63,30.31,30.20,5,1,8,0.23
2013-11-22,51.1,44.5,34.0,50.0,41.8,30.0,97,90,78,30.46,30.19,10,3,21,0.07
2013-11-23,33.5,27.2,20.5,30.0,19.6,11.0,93,74,54,30.67,30.44,13,4,20,0.00
2013-11-24,26.8,18.0,13.4,13.0,-4.2,-99.9,84,57,45,30.77,30.58,6,-134,11,0.00
2013-11-25,33.5,27.7,17.7,22.0,15.4,12.0,78,61,47,30.58,30.22,9,2,11,0.00
2013-11-26,35.6,32.8,29.8,29.0,26.0,22.0,86,76,65,30.25,30.01,9,2,17,0.00
2013-11-27,29.7,22.8,17.4,25.0,15.9,12.0,82,75,60,30.36,30.05,11,3,14,0.00
2013-11-28,36.7,24.9,15.0,18.0,14.8,12.0,88,67,43,30.51,30.31,12,2,17,0.00
2013-11-29,38.5,26.8,15.0,23.0,19.2,13.0,93,74,52,30.69,30.51,4,0,7,0.00
2013-11-30,51.9,37.4,27.0,29.0,24.7,21.0,81,63,38,30.54,30.18,10,2,13,0.00
2013-12-1,51.7,39.6,28.7,37.0,31.2,25.0,86,73,58,30.18,30.00,6,1,10,0.01
2013-12-2,49.1,41.4,35.2,40.0,36.3,32.0,90,82,70,29.99,29.80,4,1,6,0.01
2013-12-3,49.7,43.7,35.7,47.0,42.1,34.0,97,94,89,29.87,29.79,4,1,7,0.00
2013-12-4,61.9,53.8,45.5,58.0,52.1,44.0,97,94,85,29.84,29.66,7,2,10,0.03
2013-12-5,62.0,37.1,23.8,58.0,30.3,-99.9,94,83,78,30.24,29.74,10,-29,16,0.02
2013-12-6,27.1,24.4,22.7,23.0,21.6,19.0,94,89,81,30.50,30.23,10,3,13,0.00
2013-12-7,24.4,18.2,12.3,18.0,12.0,9.0,89,77,57,30.70,30.50,7,2,9,0.00
2013-12-8,29.0,23.6,17.6,28.0,20.0,13.0,96,86,78,30.59,30.06,10,2,12,0.00
2013-12-9,29.3,25.4,20.1,28.0,20.6,14.0,95,82,68,30.31,30.05,10,3,16,0.00
2013-12-10,26.5,19.9,12.5,17.0,13.1,10.0,90,75,52,30.42,30.23,13,2,22,0.00
2013-12-11,29.9,18.3,9.4,21.0,13.4,6.0,93,81,67,30.62,30.38,8,2,15,0.00
2013-12-12,22.4,13.4,4.2,5.0,-10.1,-99.9,83,49,34,30.64,30.41,7,-100,14,0.00
2013-12-13,34.2,22.2,12.7,31.0,-2.3,-99.9,95,60,56,30.40,30.17,7,-178,16,0.00
2013-12-14,34.9,30.8,27.0,34.0,25.5,-99.9,96,91,91,30.17,29.77,9,-40,14,0.21
2013-12-15,28.0,23.2,18.5,26.0,18.6,13.0,93,82,73,30.18,29.99,10,4,18,0.00
2013-12-16,28.0,24.0,19.4,26.0,22.0,17.0,96,92,89,30.18,30.06,6,1,7,0.00
2013-12-17,28.0,25.5,22.6,27.0,23.1,20.0,96,90,81,30.22,30.07,14,2,15,0.00
2013-12-18,37.3,27.6,17.3,23.0,17.8,13.0,90,68,42,30.32,30.06,6,2,12,0.02
2013-12-19,51.8,39.2,33.4,45.0,16.3,-99.9,83,60,57,30.07,29.91,10,-152,21,0.15
2013-12-20,60.5,55.5,48.4,58.0,52.1,45.0,96,88,69,29.91,29.77,11,3,19,1.65
2013-12-21,52.0,43.7,38.5,51.0,42.8,38.0,98,97,95,29.82,29.48,7,1,10,4.04
2013-12-22,56.5,39.8,32.0,56.0,38.2,29.0,98,94,89,30.13,29.41,10,3,16,0.05
2013-12-23,32.0,25.9,16.7,29.0,21.1,9.0,88,82,71,30.49,30.14,9,3,13,0.00
2013-12-24,19.2,13.4,6.9,13.0,7.4,2.0,84,77,66,30.66,30.49,7,2,12,0.00
2013-12-25,30.2,24.7,18.3,25.0,17.8,13.0,84,75,65,30.52,30.25,6,1,8,0.00
2013-12-26,37.5,31.1,24.4,28.0,23.5,20.0,88,74,56,30.44,30.23,10,2,15,0.00
2013-12-27,47.2,36.1,27.1,33.0,28.5,23.0,87,74,57,30.44,30.30,6,1,12,0.00
2013-12-28,53.7,41.9,33.3,35.0,31.6,29.0,87,69,41,30.30,30.01,7,1,10,0.00
2013-12-29,44.7,36.5,27.1,35.0,30.6,25.0,94,80,67,30.13,29.85,11,2,16,0.00
2013-12-30,26.7,21.1,17.5,25.0,14.8,10.0,91,77,66,30.35,30.13,5,2,11,0.00
2013-12-31,31.2,25.6,20.3,20.0,16.1,12.0,80,68,57,30.44,30.25,7,2,12,0.00
2014-1-1,41.3,30.5,20.1,30.0,24.8,18.0,92,80,63,30.32,30.07,4,0,7,0.00
2014-1-2,29.8,18.6,9.4,27.0,15.0,2.0,94,85,70,30.41,29.95,8,3,15,0.00